Terminal Aerodrome Forecast
Issued by NWS Hastings, NE

Home | Current Version | Previous Version | Text Only | Print | Product List | Glossary On
Versions: 1 2 3 4 5 6 7 8 9 10 11 12 13 14 15 16
000
FTUS43 KGID 210645 AAA
TAFGRI
TAF AMD
KGRI 210645Z 2107/2206 21010KT 6SM -TSRA SCT050 BKN080CB
     FM211000 27010KT P6SM SCT050 BKN100
     FM211200 32012KT P6SM SCT080 BKN150
     FM211400 35018G26KT P6SM SCT250
     FM220000 01011KT P6SM SKC=

USA.gov is the U.S. government's official web portal to all federal, state and local government web resources and services.